Williamstown, Kentucky
Current Conditions -  °F | °C
As of 6:52 AM on Sunday 23 Nov 2014 (Local Time) from KCVG Reporting Station
Overcast Overcast  
Wind Chill: 42°   Ceiling: 7500
Heat Index: 46°   Visibility: 10mi
Dew Point: 37°   Wind: 7mph
Humidity: 71%   Direction: 170°S
Pressure: 29.98"   Gusts: NA
Location:  38.64°N, 84.56°W
Report Text: KCVG 231152Z 17006KT 10SM OVC075 08/03 A2998 RMK AO2 SLP151 T00780028 10117 20072 56011
Loading
Personal Weather Stations






























Interactive Weather Map New forecast layout! Learn more

10-Day Weather Forecast

Advertisements
Track Severe Weather on mobile